Time;durP1;ratioP1;P1;durP2;ratioP2;P2;SDS_P1;SDS_P2;PMS_P1;PMS_P2;Temp;Humidity;BMP_temperature;BMP_pressure;BME280_temperature;BME280_humidity;BME280_pressure;Samples;Min_cycle;Max_cycle;Signal;HPM_P1;HPM_P2
2022/11/16 00:02:04;;;;;;;42.63;16.08;;;;;;;5.04;95.26;95112.50;5070668;28;20047;-75
2022/11/16 00:04:30;;;;;;;32.25;14.77;;;;;;;5.04;94.95;95104.41;5071141;28;20041;-75
2022/11/16 00:06:57;;;;;;;38.70;14.77;;;;;;;5.04;95.35;95096.31;5070847;28;20040;-75
2022/11/16 00:09:25;;;;;;;37.17;15.50;;;;;;;5.03;95.10;95083.94;5070697;28;20093;-75
2022/11/16 00:11:53;;;;;;;35.10;15.15;;;;;;;4.97;95.44;95085.97;5070903;28;20041;-76
2022/11/16 00:14:23;;;;;;;32.60;15.75;;;;;;;4.95;95.52;95078.19;5070149;28;20074;-76
2022/11/16 00:16:50;;;;;;;30.27;15.10;;;;;;;4.91;95.38;95071.06;5071046;28;20045;-75
2022/11/16 00:19:17;;;;;;;28.92;14.98;;;;;;;4.91;95.74;95069.16;5070527;28;20045;-76
2022/11/16 00:21:43;;;;;;;33.22;16.15;;;;;;;4.93;95.35;95064.22;5071025;28;20054;-76
2022/11/16 00:24:12;;;;;;;29.48;14.75;;;;;;;4.93;95.84;95066.91;5070553;28;20058;-76
2022/11/16 00:26:39;;;;;;;32.70;14.30;;;;;;;4.83;95.87;95059.13;5071106;28;20491;-76
2022/11/16 00:29:05;;;;;;;30.73;15.02;;;;;;;4.83;96.45;95053.72;5070620;28;20044;-77
2022/11/16 00:31:33;;;;;;;29.30;15.57;;;;;;;4.79;96.76;95049.25;5070746;28;20055;-76
2022/11/16 00:34:00;;;;;;;27.33;14.90;;;;;;;4.79;96.79;95039.28;5070887;28;20431;-75
2022/11/16 00:36:26;;;;;;;26.65;14.88;;;;;;;4.79;96.87;95033.88;5070449;28;20046;-76
2022/11/16 00:38:53;;;;;;;29.20;15.55;;;;;;;4.81;97.05;95033.59;5070755;28;20047;-76
2022/11/16 00:41:20;;;;;;;26.75;15.35;;;;;;;4.84;97.19;95022.94;5070171;28;20048;-75
2022/11/16 00:43:46;;;;;;;30.80;15.98;;;;;;;4.81;97.01;95017.41;5070303;28;20063;-76
2022/11/16 00:46:13;;;;;;;24.13;15.02;;;;;;;4.79;97.36;95020.38;5070285;28;20040;-76
2022/11/16 00:48:40;;;;;;;25.60;14.55;;;;;;;4.79;97.54;95016.91;5070567;28;20052;-76
2022/11/16 00:51:07;;;;;;;28.45;16.73;;;;;;;4.71;97.63;95018.47;5070143;28;20040;-75
2022/11/16 00:53:35;;;;;;;25.67;15.27;;;;;;;4.65;97.55;95019.72;5070879;28;20044;-75
2022/11/16 00:56:01;;;;;;;28.55;15.82;;;;;;;4.65;98.12;95020.53;5070219;28;20426;-77
2022/11/16 00:58:28;;;;;;;28.52;15.82;;;;;;;4.72;98.09;95036.25;5070498;28;20048;-75
2022/11/16 01:00:54;;;;;;;27.80;15.32;;;;;;;4.79;98.29;95035.78;5070610;28;20048;-76
2022/11/16 01:03:21;;;;;;;30.42;16.50;;;;;;;4.80;97.82;95048.16;5069914;28;20040;-76
2022/11/16 01:05:49;;;;;;;28.33;16.08;;;;;;;4.86;97.34;95050.41;5070564;28;20041;-76
2022/11/16 01:08:15;;;;;;;28.40;15.73;;;;;;;4.88;97.47;95047.41;5069909;28;20074;-75
2022/11/16 01:10:42;;;;;;;29.90;17.90;;;;;;;4.89;97.23;95052.47;5067657;28;20452;-75
2022/11/16 01:13:10;;;;;;;30.23;16.77;;;;;;;4.94;97.05;95048.84;5073977;28;20406;-75
2022/11/16 01:15:36;;;;;;;29.80;16.58;;;;;;;4.96;97.34;95054.72;5073399;28;20045;-75
2022/11/16 01:18:03;;;;;;;29.38;15.25;;;;;;;5.02;97.36;95061.56;5070681;28;20040;-76
2022/11/16 01:20:30;;;;;;;29.40;16.13;;;;;;;5.09;96.16;95061.09;5074085;28;20050;-75
2022/11/16 01:22:58;;;;;;;26.13;14.65;;;;;;;5.09;96.30;95069.97;5074077;28;20051;-76
2022/11/16 01:25:25;;;;;;;30.58;16.95;;;;;;;5.02;96.75;95061.56;5073763;28;20049;-75
2022/11/16 01:27:51;;;;;;;31.55;16.88;;;;;;;5.10;97.04;95062.69;5074084;28;20410;-75
2022/11/16 01:30:18;;;;;;;30.45;15.75;;;;;;;5.11;96.57;95075.84;5073496;28;20045;-75
2022/11/16 01:32:44;;;;;;;29.48;15.88;;;;;;;5.12;96.51;95065.88;5074005;28;20048;-75
2022/11/16 01:35:15;;;;;;;30.92;16.15;;;;;;;5.16;96.67;95066.81;5073515;28;20513;-75
2022/11/16 01:37:42;;;;;;;26.55;14.95;;;;;;;5.14;96.03;95060.94;5073935;28;20048;-75
2022/11/16 01:40:12;;;;;;;28.85;15.93;;;;;;;5.13;95.97;95064.75;5073495;28;20044;-75
2022/11/16 01:42:39;;;;;;;29.45;15.93;;;;;;;5.15;95.67;95063.31;5073564;28;20048;-75
2022/11/16 01:45:16;;;;;;;29.98;15.90;;;;;;;5.16;95.73;95053.31;5073162;28;20051;-76
2022/11/16 01:47:43;;;;;;;26.08;15.13;;;;;;;5.22;95.82;95033.19;5073594;28;20097;-76
2022/11/16 01:50:13;;;;;;;30.85;16.38;;;;;;;5.21;95.50;95032.38;5073714;28;20648;-76
2022/11/16 01:52:44;;;;;;;33.85;17.27;;;;;;;5.16;95.47;95024.44;5074498;28;20487;-76
2022/11/16 01:55:12;;;;;;;30.05;16.48;;;;;;;5.19;95.27;95023.00;5074169;28;20056;-76
2022/11/16 01:57:42;;;;;;;30.75;16.65;;;;;;;5.16;95.45;95029.03;5073756;28;20131;-75
2022/11/16 02:00:11;;;;;;;30.23;15.80;;;;;;;5.17;95.32;95025.25;5073343;28;20061;-76
2022/11/16 02:02:38;;;;;;;32.17;17.38;;;;;;;5.15;95.47;95024.75;5073402;28;20040;-76
2022/11/16 02:05:06;;;;;;;33.60;17.10;;;;;;;5.17;95.50;95019.84;5073139;28;20048;-76
2022/11/16 02:10:54;;;;;;;32.20;17.40;;;;;;;5.12;95.46;95012.69;5058447;28;20403;-76
2022/11/16 02:13:34;;;;;;;34.08;17.48;;;;;;;5.12;95.46;94996.50;5072823;28;20045;-75
2022/11/16 02:16:09;;;;;;;30.35;16.45;;;;;;;5.10;95.94;94987.91;5070044;28;20098;-75
2022/11/16 02:18:44;;;;;;;31.70;16.45;;;;;;;5.13;95.74;94994.59;5046495;28;20048;-75
2022/11/16 02:21:21;;;;;;;30.77;16.00;;;;;;;5.05;95.70;94998.06;5052472;28;20056;-75
2022/11/16 02:24:19;;;;;;;28.17;15.40;;;;;;;5.02;95.71;95012.22;5053358;28;20048;-75
2022/11/16 02:27:28;;;;;;;26.30;14.52;;;;;;;5.04;95.66;95002.66;5053067;28;20120;-75
2022/11/16 02:29:57;;;;;;;29.75;15.50;;;;;;;5.03;96.04;94998.41;5053265;28;20037;-75
2022/11/16 02:32:30;;;;;;;27.45;14.77;;;;;;;5.08;96.42;94983.97;5054258;28;20048;-75
2022/11/16 02:35:02;;;;;;;30.27;15.52;;;;;;;5.01;96.32;94984.41;5073183;28;20040;-75
2022/11/16 02:37:34;;;;;;;28.10;15.35;;;;;;;4.96;96.24;94985.38;5073077;28;20045;-76
2022/11/16 02:40:05;;;;;;;27.23;14.80;;;;;;;4.97;96.05;94984.25;5073173;28;20044;-76
2022/11/16 02:42:36;;;;;;;27.45;15.13;;;;;;;4.88;95.79;94985.34;5072465;28;20127;-75
2022/11/16 02:45:08;;;;;;;25.13;14.43;;;;;;;4.89;96.13;94976.94;5072627;28;20407;-76
2022/11/16 02:47:36;;;;;;;26.50;14.70;;;;;;;4.89;96.38;94976.94;5069429;28;20496;-76
2022/11/16 02:50:08;;;;;;;27.55;15.25;;;;;;;4.83;97.12;94972.81;5072124;28;20079;-75
2022/11/16 02:52:36;;;;;;;29.17;14.73;;;;;;;4.80;97.38;94978.03;5072803;28;20048;-75
2022/11/16 02:55:03;;;;;;;29.20;15.18;;;;;;;4.78;97.35;94986.44;5072031;28;20044;-75
2022/11/16 02:57:39;;;;;;;31.13;15.82;;;;;;;4.78;97.77;94974.88;5072707;28;20040;-75
2022/11/16 03:00:12;;;;;;;30.08;17.20;;;;;;;4.81;98.31;94990.44;5072048;28;20054;-75
2022/11/16 03:02:47;;;;;;;31.13;16.17;;;;;;;4.83;98.25;95010.56;5072349;28;20380;-76
2022/11/16 03:05:18;;;;;;;29.58;15.98;;;;;;;4.80;98.00;95027.38;5071897;28;20048;-76
2022/11/16 03:07:48;;;;;;;32.45;16.02;;;;;;;4.82;98.06;95018.97;5072279;28;20102;-75
2022/11/16 03:11:58;;;;;;;32.03;16.23;;;;;;;4.85;98.28;95002.94;5071809;28;20040;-76
2022/11/16 03:13:09;;;;;;;25.85;14.48;;;;;;;4.90;98.51;94999.31;5071869;28;20044;-76
2022/11/16 03:15:40;;;;;;;29.08;15.52;;;;;;;4.85;98.96;94992.16;5072210;28;20091;-76
2022/11/16 03:18:08;;;;;;;28.63;15.40;;;;;;;4.89;98.99;94982.34;5071311;28;20123;-77
2022/11/16 03:20:38;;;;;;;27.50;15.10;;;;;;;4.96;98.56;94973.78;5072154;28;20513;-76
2022/11/16 03:23:09;;;;;;;29.80;15.70;;;;;;;5.00;98.62;94976.63;5071289;28;20070;-76
2022/11/16 03:25:41;;;;;;;25.30;14.68;;;;;;;4.94;99.18;94974.09;5071842;28;20051;-75
2022/11/16 03:28:13;;;;;;;27.35;14.43;;;;;;;4.93;98.90;94977.13;5071421;28;20492;-76
2022/11/16 03:30:47;;;;;;;26.77;14.38;;;;;;;4.95;98.80;94988.38;5071895;28;20477;-76
2022/11/16 03:33:18;;;;;;;26.90;14.77;;;;;;;4.90;99.13;94973.13;5070305;28;20515;-75
2022/11/16 03:35:52;;;;;;;24.55;14.32;;;;;;;4.90;99.49;94973.13;5071907;28;20048;-75
2022/11/16 03:38:22;;;;;;;29.20;15.48;;;;;;;4.94;99.67;94979.50;5070869;28;20491;-75
2022/11/16 03:40:50;;;;;;;27.63;15.45;;;;;;;4.98;99.61;94971.56;5071555;28;20044;-76
2022/11/16 03:43:19;;;;;;;25.02;15.32;;;;;;;4.98;99.79;94975.06;5070770;28;20052;-75
2022/11/16 03:45:47;;;;;;;27.90;15.73;;;;;;;4.91;100.00;94973.94;5071327;28;20068;-75
2022/11/16 03:48:14;;;;;;;26.45;14.65;;;;;;;4.89;100.00;94968.84;5070561;28;20037;-77
2022/11/16 03:50:42;;;;;;;28.90;15.38;;;;;;;4.91;100.00;94973.94;5071593;28;20045;-76
2022/11/16 03:53:09;;;;;;;23.45;13.80;;;;;;;4.95;100.00;94980.28;5070736;28;20131;-75
2022/11/16 03:55:35;;;;;;;27.45;15.32;;;;;;;4.94;100.00;94970.59;5071235;28;20037;-75
2022/11/16 03:58:02;;;;;;;25.30;14.75;;;;;;;4.94;100.00;94968.69;5070550;28;20048;-78
2022/11/16 04:00:28;;;;;;;25.17;13.35;;;;;;;4.98;100.00;94974.25;5070849;28;20044;-75
2022/11/16 04:02:56;;;;;;;25.65;14.75;;;;;;;4.99;100.00;94989.34;5071005;28;20051;-75
2022/11/16 04:24:49;;;;;;;24.55;14.52;;;;;;;4.93;100.00;95021.06;5064906;28;20044;-75
2022/11/16 04:30:01;;;;;;;24.17;13.85;;;;;;;4.97;100.00;95027.44;5070918;28;20127;-75
2022/11/16 04:38:09;;;;;;;27.73;15.50;;;;;;;4.74;100.00;95052.91;5069980;28;20041;-75
2022/11/16 04:40:35;;;;;;;26.52;15.65;;;;;;;4.58;100.00;95062.50;5070698;28;20109;-75
2022/11/16 04:43:04;;;;;;;28.70;14.95;;;;;;;4.68;100.00;95067.63;5070270;28;20048;-75
2022/11/16 04:48:17;;;;;;;30.58;16.30;;;;;;;4.39;100.00;95051.97;5071648;28;20054;-78
2022/11/16 04:50:46;;;;;;;33.78;17.55;;;;;;;4.36;100.00;95066.84;5090594;28;20130;-75
2022/11/16 04:53:13;;;;;;;30.40;16.38;;;;;;;4.43;100.00;95059.13;5089967;28;20040;-76
2022/11/16 04:55:40;;;;;;;36.88;17.02;;;;;;;4.34;100.00;95074.47;5090574;28;20380;-75
2022/11/16 04:58:07;;;;;;;32.50;17.33;;;;;;;4.50;100.00;95080.25;5089677;28;20048;-75
2022/11/16 05:00:34;;;;;;;32.55;17.45;;;;;;;4.50;100.00;95069.47;5090589;28;20585;-75
2022/11/16 05:03:00;;;;;;;32.13;16.65;;;;;;;4.55;100.00;95079.31;5090182;28;20036;-75
2022/11/16 05:05:27;;;;;;;34.92;18.65;;;;;;;4.56;100.00;95087.09;5069882;28;20044;-75
2022/11/16 05:07:55;;;;;;;32.03;17.13;;;;;;;4.63;100.00;95063.16;5070379;28;20458;-75
2022/11/16 05:10:21;;;;;;;26.85;15.65;;;;;;;4.76;100.00;95074.97;5069561;28;20162;-75
2022/11/16 05:12:48;;;;;;;29.65;15.43;;;;;;;4.85;100.00;95074.97;5070059;28;20054;-75
2022/11/16 05:15:16;;;;;;;28.85;15.02;;;;;;;4.87;100.00;95076.28;5069747;28;20052;-76
2022/11/16 05:17:42;;;;;;;31.52;15.98;;;;;;;4.69;100.00;95082.69;5077684;28;20037;-76
2022/11/16 05:22:57;;;;;;;35.22;17.90;;;;;;;4.68;100.00;95083.81;5090223;28;20047;-75
2022/11/16 05:25:23;;;;;;;31.80;17.02;;;;;;;4.76;100.00;95084.97;5089890;28;20066;-75
2022/11/16 05:27:50;;;;;;;30.05;16.55;;;;;;;4.72;100.00;95090.19;5090295;28;20041;-75
2022/11/16 05:30:17;;;;;;;33.33;17.63;;;;;;;4.64;100.00;95096.31;5089848;28;20151;-75
2022/11/16 05:32:43;;;;;;;39.08;18.70;;;;;;;4.66;100.00;95094.13;5090200;28;20044;-75
2022/11/16 05:35:10;;;;;;;31.67;16.77;;;;;;;4.74;100.00;95089.84;5089724;28;20070;-76
2022/11/16 05:37:37;;;;;;;36.53;18.08;;;;;;;4.84;100.00;95094.97;5090624;28;20161;-75
2022/11/16 05:40:06;;;;;;;33.20;17.48;;;;;;;4.92;100.00;95091.53;5090011;28;20048;-75
2022/11/16 05:42:32;;;;;;;30.52;16.80;;;;;;;4.95;100.00;95098.97;5090668;28;20063;-75
2022/11/16 05:44:59;;;;;;;29.35;16.33;;;;;;;5.00;100.00;95096.13;5090423;28;20046;-75
2022/11/16 05:47:25;;;;;;;27.35;15.40;;;;;;;5.07;100.00;95095.69;5089303;28;20048;-75
2022/11/16 05:49:52;;;;;;;31.13;16.27;;;;;;;5.08;100.00;95094.59;5089739;28;20044;-75
2022/11/16 05:52:18;;;;;;;27.58;15.65;;;;;;;5.10;100.00;95089.66;5089526;28;20138;-75
2022/11/16 05:54:45;;;;;;;26.17;14.55;;;;;;;5.09;100.00;95096.16;5090088;28;20048;-76
2022/11/16 05:57:14;;;;;;;28.13;15.50;;;;;;;5.12;100.00;95098.25;5091620;28;20055;-75
2022/11/16 05:59:41;;;;;;;27.88;14.77;;;;;;;5.13;100.00;95105.22;5093708;28;20051;-75
2022/11/16 06:02:07;;;;;;;31.23;16.83;;;;;;;5.10;100.00;95100.44;5092468;28;20060;-76
2022/11/16 06:04:34;;;;;;;26.15;15.13;;;;;;;5.12;100.00;95100.94;5093344;28;20051;-75
2022/11/16 06:07:00;;;;;;;27.40;15.13;;;;;;;5.14;100.00;95112.22;5093444;28;20059;-75
2022/11/16 06:09:27;;;;;;;25.80;15.48;;;;;;;5.11;100.00;95107.44;5095095;28;20043;-75
2022/11/16 06:11:53;;;;;;;26.83;14.90;;;;;;;5.05;100.00;95111.38;5095715;28;20040;-75
2022/11/16 06:14:22;;;;;;;27.35;15.90;;;;;;;5.04;100.00;95124.09;5095009;28;20046;-75
2022/11/16 06:16:48;;;;;;;28.30;15.93;;;;;;;5.01;100.00;95118.50;5094697;28;20043;-75
2022/11/16 06:19:15;;;;;;;28.55;15.32;;;;;;;4.87;100.00;95113.25;5094748;28;20044;-75
2022/11/16 06:21:41;;;;;;;27.35;15.55;;;;;;;4.78;100.00;95113.19;5094430;28;20040;-75
2022/11/16 06:24:08;;;;;;;29.40;15.77;;;;;;;4.79;100.00;95112.09;5093813;28;20040;-75
2022/11/16 06:26:35;;;;;;;28.48;15.68;;;;;;;4.86;100.00;95115.16;5094741;28;20133;-74
2022/11/16 06:29:02;;;;;;;27.30;15.15;;;;;;;4.90;100.00;95112.59;5094119;28;20040;-74
2022/11/16 06:31:30;;;;;;;28.13;14.90;;;;;;;4.94;100.00;95114.38;5094402;28;20552;-74
2022/11/16 06:33:57;;;;;;;28.60;15.55;;;;;;;4.98;100.00;95115.34;5094830;28;20072;-74
2022/11/16 06:36:23;;;;;;;27.27;15.52;;;;;;;5.04;100.00;95123.28;5094601;28;20043;-75
2022/11/16 06:38:50;;;;;;;29.02;15.52;;;;;;;5.00;100.00;95116.94;5095261;28;20054;-74
2022/11/16 06:41:17;;;;;;;27.50;15.05;;;;;;;5.01;100.00;95115.81;5094605;28;20048;-75
2022/11/16 06:43:43;;;;;;;27.75;15.40;;;;;;;5.01;100.00;95122.00;5094911;28;20036;-75
2022/11/16 06:46:10;;;;;;;26.45;15.15;;;;;;;5.04;100.00;95115.19;5094827;28;20050;-75
2022/11/16 06:48:38;;;;;;;27.27;14.68;;;;;;;5.08;100.00;95108.06;5095199;28;20047;-74
2022/11/16 06:51:04;;;;;;;29.70;15.98;;;;;;;5.12;100.00;95119.84;5094569;28;20054;-74
2022/11/16 06:53:31;;;;;;;28.02;14.95;;;;;;;5.15;100.00;95113.81;5094852;28;20044;-75
2022/11/16 06:56:01;;;;;;;27.50;16.05;;;;;;;5.14;100.00;95104.91;5096882;28;20047;-75
2022/11/16 06:58:29;;;;;;;27.67;15.88;;;;;;;5.16;100.00;95104.59;5097312;28;20051;-75
2022/11/16 07:00:55;;;;;;;30.63;17.42;;;;;;;5.16;100.00;95104.59;5096821;28;20055;-74
2022/11/16 07:03:22;;;;;;;31.45;17.15;;;;;;;5.14;100.00;95101.41;5096214;28;20048;-75
2022/11/16 07:05:49;;;;;;;30.23;16.23;;;;;;;5.16;100.00;95104.59;5097094;28;20548;-75
2022/11/16 07:08:16;;;;;;;30.70;15.88;;;;;;;5.17;100.00;95111.59;5096389;28;20058;-75
2022/11/16 07:10:42;;;;;;;28.13;15.85;;;;;;;5.17;100.00;95100.81;5097183;28;20044;-74
2022/11/16 07:13:09;;;;;;;28.70;16.25;;;;;;;5.14;100.00;95106.81;5096835;28;20047;-75
2022/11/16 07:15:35;;;;;;;25.27;15.07;;;;;;;5.08;100.00;95106.16;5097627;28;20046;-75
2022/11/16 07:18:03;;;;;;;29.95;16.20;;;;;;;5.13;100.00;95110.63;5096990;28;20040;-75
2022/11/16 07:20:30;;;;;;;26.85;14.55;;;;;;;5.19;100.00;95109.38;5097723;28;20048;-75
2022/11/16 07:23:00;;;;;;;27.08;15.35;;;;;;;5.12;100.00;95109.03;5097398;28;20036;-75
2022/11/16 07:25:27;;;;;;;25.45;15.52;;;;;;;5.20;100.00;95116.34;5096572;28;20051;-75
2022/11/16 07:27:54;;;;;;;25.08;14.93;;;;;;;5.23;100.00;95129.22;5095283;28;20044;-75
2022/11/16 07:30:20;;;;;;;27.98;15.40;;;;;;;5.17;100.00;95117.78;5091294;28;20044;-75
2022/11/16 07:32:47;;;;;;;25.92;14.57;;;;;;;5.23;100.00;95121.94;5091951;28;20054;-75
2022/11/16 07:35:13;;;;;;;23.98;14.55;;;;;;;5.22;100.00;95120.34;5091217;28;20054;-74
2022/11/16 07:37:40;;;;;;;26.42;14.50;;;;;;;5.29;100.00;95113.69;5091965;28;20054;-75
2022/11/16 07:40:09;;;;;;;25.25;14.05;;;;;;;5.29;100.00;95114.47;5091093;28;20568;-75
2022/11/16 07:42:36;;;;;;;32.40;16.58;;;;;;;5.30;100.00;95118.75;5091606;28;20422;-75
2022/11/16 07:45:03;;;;;;;25.58;14.77;;;;;;;5.30;100.00;95115.28;5090953;28;20667;-76
2022/11/16 07:47:34;;;;;;;24.85;14.77;;;;;;;5.34;100.00;95106.22;5091412;28;20050;-75
2022/11/16 07:50:01;;;;;;;26.85;15.35;;;;;;;5.40;100.00;95114.97;5091160;28;20036;-75
2022/11/16 07:52:27;;;;;;;26.35;14.30;;;;;;;5.44;100.00;95116.72;5111590;28;20042;-75
2022/11/16 07:54:54;;;;;;;27.33;15.90;;;;;;;5.46;100.00;95119.09;5111673;28;20051;-74
2022/11/16 07:57:22;;;;;;;25.38;14.88;;;;;;;5.46;100.00;95113.72;5111293;28;20044;-75
2022/11/16 07:59:48;;;;;;;26.80;14.75;;;;;;;5.47;100.00;95121.47;5111734;28;20049;-75
2022/11/16 08:02:15;;;;;;;25.05;14.32;;;;;;;5.49;100.00;95124.69;5111134;28;20039;-75
2022/11/16 08:04:41;;;;;;;27.20;14.85;;;;;;;5.52;100.00;95111.66;5111818;28;20086;-75
2022/11/16 08:07:08;;;;;;;25.67;14.45;;;;;;;5.54;100.00;95104.03;5111268;28;20058;-75
2022/11/16 08:09:36;;;;;;;27.17;14.75;;;;;;;5.59;100.00;95117.41;5111634;28;20050;-75
2022/11/16 08:12:03;;;;;;;24.90;14.15;;;;;;;5.62;100.00;95111.34;5111180;28;20043;-75
2022/11/16 08:14:31;;;;;;;32.50;19.20;;;;;;;5.60;100.00;95116.28;5111569;28;20498;-75
2022/11/16 08:16:57;;;;;;;39.45;22.15;;;;;;;5.56;100.00;95112.63;5111348;28;20043;-75
2022/11/16 08:19:24;;;;;;;31.65;16.70;;;;;;;5.53;100.00;95115.94;5110432;28;20059;-75
2022/11/16 08:21:50;;;;;;;28.88;16.15;;;;;;;5.60;100.00;95113.56;5111117;28;20039;-75
2022/11/16 08:24:17;;;;;;;28.08;16.23;;;;;;;5.62;100.00;95122.94;5110623;28;20575;-75
2022/11/16 08:26:43;;;;;;;28.05;15.77;;;;;;;5.66;100.00;95125.81;5111425;28;20108;-75
2022/11/16 08:29:10;;;;;;;26.92;15.88;;;;;;;5.72;100.00;95128.03;5110853;28;20502;-75
2022/11/16 08:31:38;;;;;;;29.05;15.52;;;;;;;5.78;100.00;95115.16;5111157;28;20047;-76
2022/11/16 08:34:05;;;;;;;30.55;15.90;;;;;;;5.77;100.00;95116.28;5110675;28;20074;-75
2022/11/16 08:36:31;;;;;;;29.77;16.95;;;;;;;5.83;100.00;95116.91;5111022;28;20402;-75
2022/11/16 08:38:58;;;;;;;28.08;15.45;;;;;;;5.83;100.00;95120.41;5111135;28;20046;-75
2022/11/16 08:41:24;;;;;;;29.92;16.13;;;;;;;5.84;100.00;95113.88;5110605;28;20043;-75
2022/11/16 08:43:52;;;;;;;33.10;17.10;;;;;;;5.89;100.00;95113.72;5111006;28;20114;-75
2022/11/16 08:46:18;;;;;;;27.20;16.63;;;;;;;5.91;100.00;95119.66;5110485;28;20070;-75
2022/11/16 08:48:46;;;;;;;29.75;17.00;;;;;;;5.90;100.00;95115.34;5110943;28;20480;-75
2022/11/16 08:51:15;;;;;;;29.38;16.20;;;;;;;5.93;100.00;95117.44;5110332;28;20051;-74
2022/11/16 08:53:41;;;;;;;31.60;16.17;;;;;;;5.95;100.00;95117.91;5110990;28;20032;-75
2022/11/16 08:56:10;;;;;;;32.33;17.02;;;;;;;5.97;100.00;95118.38;5110477;28;20055;-74
2022/11/16 08:58:37;;;;;;;32.95;17.52;;;;;;;5.98;100.00;95111.06;5110877;28;20066;-75
2022/11/16 09:01:08;;;;;;;29.58;17.10;;;;;;;6.05;100.00;95115.97;5110472;28;20051;-76
2022/11/16 09:03:35;;;;;;;32.85;17.73;;;;;;;6.09;100.00;95115.03;5110616;28;20035;-75
2022/11/16 09:06:04;;;;;;;32.92;16.88;;;;;;;6.10;100.00;95110.41;5110377;28;20052;-76
2022/11/16 09:08:30;;;;;;;30.75;17.00;;;;;;;6.14;100.00;95116.78;5110640;28;20410;-75
2022/11/16 09:10:57;;;;;;;30.70;17.45;;;;;;;6.18;100.00;95106.94;5110992;28;20044;-75
2022/11/16 09:13:24;;;;;;;31.58;18.05;;;;;;;6.26;100.00;95115.03;5110600;28;20040;-75
2022/11/16 09:15:55;;;;;;;34.53;18.67;;;;;;;6.31;100.00;95116.75;5110896;28;20043;-75
2022/11/16 09:18:22;;;;;;;35.53;19.50;;;;;;;6.35;100.00;95117.69;5089748;28;20114;-75
2022/11/16 09:20:48;;;;;;;34.53;18.23;;;;;;;6.37;100.00;95118.19;5090061;28;20048;-75
2022/11/16 09:23:16;;;;;;;32.75;18.02;;;;;;;6.42;100.00;95112.63;5089549;28;20044;-75
2022/11/16 09:25:43;;;;;;;33.30;19.48;;;;;;;6.46;100.00;95124.34;5090330;28;20119;-75
2022/11/16 09:28:10;;;;;;;35.20;19.05;;;;;;;6.48;100.00;95130.25;5089956;28;20055;-75
2022/11/16 09:30:37;;;;;;;33.97;19.38;;;;;;;6.42;100.00;95120.72;5090387;28;20048;-76
2022/11/16 09:33:04;;;;;;;31.50;18.17;;;;;;;6.48;100.00;95127.56;5093244;28;20402;-76
2022/11/16 09:35:30;;;;;;;35.53;20.13;;;;;;;6.50;100.00;95128.00;5094069;28;20131;-75
2022/11/16 09:37:57;;;;;;;30.50;18.13;;;;;;;6.59;100.00;95116.38;5094082;28;20039;-75
2022/11/16 09:40:30;;;;;;;34.25;18.45;;;;;;;6.62;100.00;95121.13;5093566;28;20036;-75
2022/11/16 09:43:06;;;;;;;35.40;20.17;;;;;;;6.43;100.00;95130.44;5094047;28;20040;-75
2022/11/16 09:45:39;;;;;;;37.90;20.00;;;;;;;6.57;100.00;95132.13;5093718;28;20506;-75
2022/11/16 09:48:11;;;;;;;41.28;20.00;;;;;;;6.59;100.00;95132.63;5111613;28;20663;-75
2022/11/16 09:50:50;;;;;;;39.25;20.92;;;;;;;6.59;100.00;95135.31;5114449;28;20052;-75
2022/11/16 09:53:25;;;;;;;36.50;19.77;;;;;;;6.64;100.00;95130.53;5113863;28;20069;-75
2022/11/16 09:55:56;;;;;;;34.35;19.00;;;;;;;6.71;100.00;95138.16;5114197;28;20047;-75
2022/11/16 09:58:27;;;;;;;38.60;19.98;;;;;;;6.68;100.00;95128.78;5113668;28;20661;-75
2022/11/16 10:01:00;;;;;;;37.60;18.70;;;;;;;6.76;100.00;95132.56;5114151;28;20558;-75
2022/11/16 10:03:28;;;;;;;29.50;14.93;;;;;;;6.66;100.00;95132.91;5113601;28;20036;-75
2022/11/16 10:06:01;;;;;;;33.63;18.95;;;;;;;6.65;100.00;95131.31;5113713;28;20043;-75
2022/11/16 10:08:41;;;;;;;40.28;20.60;;;;;;;6.59;100.00;95143.44;5113573;28;20092;-75
2022/11/16 10:11:27;;;;;;;43.10;20.10;;;;;;;6.60;100.00;95126.09;5113706;28;20040;-75
2022/11/16 10:14:04;;;;;;;41.88;21.00;;;;;;;6.79;100.00;95129.22;5114054;28;20046;-75
2022/11/16 10:16:40;;;;;;;41.92;20.88;;;;;;;6.88;100.00;95123.75;5114104;28;20065;-76
2022/11/16 10:19:17;;;;;;;43.03;22.35;;;;;;;6.93;100.00;95129.78;5113341;28;20043;-76
2022/11/16 10:21:52;;;;;;;37.38;20.80;;;;;;;6.97;100.00;95127.25;5113960;28;20043;-76
2022/11/16 10:24:29;;;;;;;42.22;20.95;;;;;;;6.98;100.00;95118.78;5112900;28;20532;-76
2022/11/16 10:27:12;;;;;;;43.50;21.83;;;;;;;7.12;100.00;95123.19;5113798;28;20048;-75
2022/11/16 10:29:52;;;;;;;41.85;20.58;;;;;;;7.16;100.00;95119.53;5113754;28;20039;-75
2022/11/16 10:32:26;;;;;;;42.88;21.45;;;;;;;7.22;100.00;95109.28;5112747;28;20425;-75
2022/11/16 10:34:55;;;;;;;41.83;21.10;;;;;;;7.10;100.00;95112.72;5113460;28;20043;-76
2022/11/16 10:37:23;;;;;;;42.85;20.30;;;;;;;7.16;100.00;95111.41;5112899;28;20051;-76
2022/11/16 10:39:52;;;;;;;42.05;21.08;;;;;;;7.23;100.00;95108.16;5113369;28;20122;-75
2022/11/16 10:42:26;;;;;;;39.60;20.48;;;;;;;7.35;100.00;95104.75;5112585;28;20055;-75
2022/11/16 10:44:57;;;;;;;43.08;20.67;;;;;;;7.40;100.00;95107.28;5113043;28;20048;-76
2022/11/16 10:47:30;;;;;;;43.45;21.02;;;;;;;7.38;100.00;95104.91;5112258;28;20073;-77
2022/11/16 10:49:59;;;;;;;40.42;20.70;;;;;;;7.33;100.00;95110.50;5113003;28;20122;-75
2022/11/16 10:52:26;;;;;;;45.08;22.20;;;;;;;7.28;100.00;95110.69;5112582;28;20039;-75
2022/11/16 10:54:53;;;;;;;46.38;22.63;;;;;;;7.33;100.00;95107.78;5113142;28;20050;-76
2022/11/16 10:57:22;;;;;;;51.97;22.67;;;;;;;7.42;100.00;95105.84;5112547;28;20134;-75
2022/11/16 10:59:54;;;;;;;45.38;22.58;;;;;;;7.53;100.00;95106.25;5112942;28;20036;-76
2022/11/16 11:02:33;;;;;;;45.33;21.73;;;;;;;7.66;100.00;95099.78;5112054;28;20122;-75
2022/11/16 11:05:15;;;;;;;42.72;21.38;;;;;;;7.71;100.00;95102.28;5112709;28;20058;-75
2022/11/16 11:07:46;;;;;;;38.78;20.65;;;;;;;7.73;100.00;95107.41;5112759;28;20036;-75
2022/11/16 11:10:26;;;;;;;38.40;20.38;;;;;;;7.80;100.00;95099.53;5112254;28;20047;-76
2022/11/16 11:13:05;;;;;;;40.22;20.52;;;;;;;7.80;100.00;95115.78;5112635;28;20127;-75
2022/11/16 11:15:32;;;;;;;39.38;20.75;;;;;;;7.90;100.00;95104.53;5112577;28;20051;-75
2022/11/16 11:18:24;;;;;;;39.38;20.83;;;;;;;7.87;100.00;95109.81;5112428;28;20077;-76
2022/11/16 11:20:53;;;;;;;42.05;20.08;;;;;;;7.82;100.00;95108.91;5112389;28;20058;-75
2022/11/16 11:23:22;;;;;;;37.75;19.17;;;;;;;7.87;100.00;95116.03;5112341;28;20051;-75
2022/11/16 11:25:52;;;;;;;36.90;19.40;;;;;;;8.00;100.00;95116.91;5112458;28;20540;-76
2022/11/16 11:28:25;;;;;;;35.28;19.55;;;;;;;7.94;100.00;95119.03;5111982;28;20498;-75
2022/11/16 11:30:58;;;;;;;38.75;20.58;;;;;;;7.98;100.00;95113.72;5112309;28;20043;-76
2022/11/16 11:33:28;;;;;;;34.03;18.92;;;;;;;8.06;100.00;95113.66;5111610;28;20066;-76
2022/11/16 11:36:06;;;;;;;34.05;19.45;;;;;;;8.11;100.00;95116.16;5112050;28;20062;-76
2022/11/16 11:38:33;;;;;;;34.42;18.10;;;;;;;8.13;100.00;95106.91;5112145;28;20041;-75
2022/11/16 11:41:03;;;;;;;38.08;20.20;;;;;;;8.19;100.00;95102.84;5112018;28;20048;-75
2022/11/16 11:43:33;;;;;;;35.45;18.60;;;;;;;8.20;100.00;95107.19;5111816;28;20035;-76
2022/11/16 11:46:07;;;;;;;39.10;20.65;;;;;;;8.07;100.00;95109.81;5111482;28;20058;-76
2022/11/16 11:48:46;;;;;;;37.35;20.40;;;;;;;8.04;100.00;95107.78;5111745;28;20036;-76
2022/11/16 11:51:21;;;;;;;45.65;20.40;;;;;;;8.08;100.00;95113.31;5111260;28;20451;-76
2022/11/16 11:53:54;;;;;;;44.80;21.02;;;;;;;8.05;100.00;95106.66;5111276;28;20053;-77
2022/11/16 11:56:21;;;;;;;38.05;20.10;;;;;;;8.15;100.00;95107.38;5111017;28;20043;-76
2022/11/16 11:58:50;;;;;;;38.42;20.92;;;;;;;8.16;100.00;95106.25;5111817;28;20048;-76
2022/11/16 12:01:47;;;;;;;36.05;20.52;;;;;;;8.23;100.00;95106.50;5111309;28;20135;-76
2022/11/16 12:05:10;;;;;;;37.80;19.67;;;;;;;8.29;100.00;95111.38;5111213;28;20138;-78
2022/11/16 12:07:51;;;;;;;36.65;19.83;;;;;;;8.32;100.00;95115.34;5028702;28;20045;-76